Terminal Aerodrome Forecast
Issued by NWS Omaha/Valley, NE

Home | Current Version | Previous Version | Text Only | Print | Product List | Glossary On
Versions: 1 2 3 4 5 6 7 8 9 10 11 12 13 14 15 16 17 18
000
FTUS43 KOAX 230010 AAA
TAFLNK
TAF AMD
KLNK 230010Z 2300/2324 12013G22KT P6SM FEW070 OVC080 WS012/16040KT
     FM230800 16008KT P6SM OVC020 WS012/16040KT
     FM231400 15015KT 5SM -RA BR OVC008
     FM231700 16015KT P6SM BKN020
     FM232300 18014G23KT 6SM BR OVC015=

USA.gov is the U.S. government's official web portal to all federal, state and local government web resources and services.